sensor_id;sensor_type;location;lat;lon;timestamp;pressure;altitude;pressure_sealevel;temperature;humidity
3832;BME280;12460;42.662;23.288;2023-04-08T00:00:05;94607.91;;;7.74;51.41
3832;BME280;12460;42.662;23.288;2023-04-08T00:15:15;94605.63;;;7.72;51.09
3832;BME280;12460;42.662;23.288;2023-04-08T00:30:18;94612.50;;;7.64;51.48
3832;BME280;12460;42.662;23.288;2023-04-08T00:45:22;94610.41;;;7.57;51.75
3832;BME280;12460;42.662;23.288;2023-04-08T01:00:29;94616.88;;;7.44;52.07
3832;BME280;12460;42.662;23.288;2023-04-08T01:15:36;94623.81;;;7.51;52.16
3832;BME280;12460;42.662;23.288;2023-04-08T01:30:42;94624.63;;;7.38;52.84
3832;BME280;12460;42.662;23.288;2023-04-08T01:45:49;94616.69;;;7.01;54.16
3832;BME280;12460;42.662;23.288;2023-04-08T02:00:58;94625.97;;;7.17;53.33
3832;BME280;12460;42.662;23.288;2023-04-08T02:16:18;94641.97;;;7.37;52.50
3832;BME280;12460;42.662;23.288;2023-04-08T02:31:26;94643.13;;;7.41;52.76
3832;BME280;12460;42.662;23.288;2023-04-08T02:46:30;94640.88;;;7.40;53.98
3832;BME280;12460;42.662;23.288;2023-04-08T03:01:38;94646.69;;;7.42;53.48
3832;BME280;12460;42.662;23.288;2023-04-08T03:16:42;94645.66;;;7.32;53.82
3832;BME280;12460;42.662;23.288;2023-04-08T03:31:47;94649.22;;;7.32;53.58
3832;BME280;12460;42.662;23.288;2023-04-08T03:46:52;94643.63;;;7.32;53.90
3832;BME280;12460;42.662;23.288;2023-04-08T04:01:56;94643.41;;;7.30;53.45
3832;BME280;12460;42.662;23.288;2023-04-08T04:17:01;94650.38;;;7.37;53.44
3832;BME280;12460;42.662;23.288;2023-04-08T04:32:05;94658.81;;;7.44;53.77
3832;BME280;12460;42.662;23.288;2023-04-08T04:47:10;94661.25;;;7.48;53.67
3832;BME280;12460;42.662;23.288;2023-04-08T05:02:14;94666.06;;;7.68;53.88
3832;BME280;12460;42.662;23.288;2023-04-08T05:17:18;94669.03;;;7.91;52.68
3832;BME280;12460;42.662;23.288;2023-04-08T05:32:22;94668.47;;;8.28;52.95
3832;BME280;12460;42.662;23.288;2023-04-08T05:47:26;94668.09;;;8.75;51.55
3832;BME280;12460;42.662;23.288;2023-04-08T06:02:30;94661.47;;;9.08;50.34
3832;BME280;12460;42.662;23.288;2023-04-08T06:17:36;94650.06;;;9.66;49.29
3832;BME280;12460;42.662;23.288;2023-04-08T06:32:40;94660.13;;;10.62;47.49
3832;BME280;12460;42.662;23.288;2023-04-08T06:47:44;94664.84;;;10.92;46.74
3832;BME280;12460;42.662;23.288;2023-04-08T07:02:49;94659.91;;;10.75;45.31
3832;BME280;12460;42.662;23.288;2023-04-08T07:17:54;94672.31;;;9.64;48.21
3832;BME280;12460;42.662;23.288;2023-04-08T07:33:05;94687.44;;;10.07;47.63
3832;BME280;12460;42.662;23.288;2023-04-08T07:48:10;94698.00;;;11.01;46.07
3832;BME280;12460;42.662;23.288;2023-04-08T08:03:14;94711.53;;;11.59;45.31
3832;BME280;12460;42.662;23.288;2023-04-08T08:18:20;94696.88;;;12.10;44.36
3832;BME280;12460;42.662;23.288;2023-04-08T08:33:24;94715.78;;;12.17;44.61
3832;BME280;12460;42.662;23.288;2023-04-08T08:48:28;94704.56;;;12.10;45.32
3832;BME280;12460;42.662;23.288;2023-04-08T09:03:32;94715.31;;;11.54;45.66
3832;BME280;12460;42.662;23.288;2023-04-08T09:18:38;94711.66;;;11.44;46.62
3832;BME280;12460;42.662;23.288;2023-04-08T09:33:43;94703.44;;;12.47;44.43
3832;BME280;12460;42.662;23.288;2023-04-08T09:49:28;94681.88;;;15.24;38.96
3832;BME280;12460;42.662;23.288;2023-04-08T10:04:34;94666.22;;;14.28;39.94
3832;BME280;12460;42.662;23.288;2023-04-08T10:19:41;94673.00;;;13.96;41.45
3832;BME280;12460;42.662;23.288;2023-04-08T10:34:52;94677.41;;;12.56;43.31
3832;BME280;12460;42.662;23.288;2023-04-08T10:49:56;94656.44;;;12.93;44.11
3832;BME280;12460;42.662;23.288;2023-04-08T11:05:01;94630.72;;;12.89;43.19
3832;BME280;12460;42.662;23.288;2023-04-08T11:20:07;94618.88;;;12.74;44.20
3832;BME280;12460;42.662;23.288;2023-04-08T11:35:12;94594.91;;;12.65;42.89
3832;BME280;12460;42.662;23.288;2023-04-08T11:50:23;94580.75;;;12.82;40.59
3832;BME280;12460;42.662;23.288;2023-04-08T12:05:28;94549.72;;;12.55;41.95
3832;BME280;12460;42.662;23.288;2023-04-08T12:20:33;94534.59;;;12.34;42.94
3832;BME280;12460;42.662;23.288;2023-04-08T12:35:38;94543.94;;;11.93;44.58
3832;BME280;12460;42.662;23.288;2023-04-08T12:50:42;94549.13;;;12.13;43.53
3832;BME280;12460;42.662;23.288;2023-04-08T13:05:46;94573.53;;;11.84;44.71
3832;BME280;12460;42.662;23.288;2023-04-08T13:20:50;94549.13;;;12.13;48.26
3832;BME280;12460;42.662;23.288;2023-04-08T13:35:54;94547.97;;;11.99;48.55
3832;BME280;12460;42.662;23.288;2023-04-08T13:50:57;94547.38;;;12.61;45.90
3832;BME280;12460;42.662;23.288;2023-04-08T14:06:03;94541.00;;;12.61;48.03
3832;BME280;12460;42.662;23.288;2023-04-08T14:21:07;94531.63;;;12.32;48.93
3832;BME280;12460;42.662;23.288;2023-04-08T14:36:11;94552.13;;;11.98;49.05
3832;BME280;12460;42.662;23.288;2023-04-08T14:51:16;94546.13;;;11.60;50.30
3832;BME280;12460;42.662;23.288;2023-04-08T15:06:22;94542.72;;;11.19;51.56
3832;BME280;12460;42.662;23.288;2023-04-08T15:21:28;94553.75;;;10.76;51.77
3832;BME280;12460;42.662;23.288;2023-04-08T15:36:32;94550.63;;;10.64;50.77
3832;BME280;12460;42.662;23.288;2023-04-08T15:51:39;94556.31;;;10.57;53.06
3832;BME280;12460;42.662;23.288;2023-04-08T16:06:47;94568.06;;;10.70;54.15
3832;BME280;12460;42.662;23.288;2023-04-08T16:21:52;94584.47;;;10.49;54.04
3832;BME280;12460;42.662;23.288;2023-04-08T16:36:57;94607.44;;;10.23;58.10
3832;BME280;12460;42.662;23.288;2023-04-08T16:52:01;94610.84;;;10.06;59.76
3832;BME280;12460;42.662;23.288;2023-04-08T17:07:06;94625.41;;;10.27;61.11
3832;BME280;12460;42.662;23.288;2023-04-08T17:22:11;94655.03;;;10.21;63.42
3832;BME280;12460;42.662;23.288;2023-04-08T17:37:16;94669.47;;;10.17;65.03
3832;BME280;12460;42.662;23.288;2023-04-08T17:52:19;94708.25;;;9.89;64.52
3832;BME280;12460;42.662;23.288;2023-04-08T18:07:23;94720.56;;;9.18;65.51
3832;BME280;12460;42.662;23.288;2023-04-08T18:22:28;94738.00;;;9.39;65.06
3832;BME280;12460;42.662;23.288;2023-04-08T18:37:32;94747.19;;;9.54;65.32
3832;BME280;12460;42.662;23.288;2023-04-08T18:52:37;94747.94;;;9.70;65.85
3832;BME280;12460;42.662;23.288;2023-04-08T19:07:42;94758.25;;;9.75;66.18
3832;BME280;12460;42.662;23.288;2023-04-08T19:22:47;94791.19;;;9.74;66.35
3832;BME280;12460;42.662;23.288;2023-04-08T19:37:51;94793.25;;;9.74;66.42
3832;BME280;12460;42.662;23.288;2023-04-08T19:52:56;94807.56;;;9.33;66.95
3832;BME280;12460;42.662;23.288;2023-04-08T20:08:00;94795.91;;;8.70;69.64
3832;BME280;12460;42.662;23.288;2023-04-08T20:23:05;94799.34;;;8.84;69.05
3832;BME280;12460;42.662;23.288;2023-04-08T20:38:09;94800.19;;;8.99;68.02
3832;BME280;12460;42.662;23.288;2023-04-08T20:53:14;94790.25;;;8.63;69.10
3832;BME280;12460;42.662;23.288;2023-04-08T21:08:28;94794.53;;;8.56;69.89
3832;BME280;12460;42.662;23.288;2023-04-08T21:23:52;94782.91;;;8.24;71.01
3832;BME280;12460;42.662;23.288;2023-04-08T21:39:09;94773.66;;;8.08;71.47
3832;BME280;12460;42.662;23.288;2023-04-08T22:09:59;94765.63;;;7.84;73.37
3832;BME280;12460;42.662;23.288;2023-04-08T22:25:04;94765.13;;;8.14;71.32
3832;BME280;12460;42.662;23.288;2023-04-08T22:40:10;94765.06;;;8.06;71.42
3832;BME280;12460;42.662;23.288;2023-04-08T22:55:14;94761.66;;;7.51;72.85
3832;BME280;12460;42.662;23.288;2023-04-08T23:10:18;94755.50;;;8.02;71.85
3832;BME280;12460;42.662;23.288;2023-04-08T23:25:22;94741.34;;;8.07;71.38
3832;BME280;12460;42.662;23.288;2023-04-08T23:40:27;94736.31;;;8.06;70.87
3832;BME280;12460;42.662;23.288;2023-04-08T23:55:31;94734.25;;;8.06;70.46
